Augusta, Ohio
Current Conditions -  °F | °C
As of 6:53 PM on Sunday 23 Nov 2014 (Local Time) from KPHD Reporting Station
Light Rain Light Rain  
Wind Chill: 60°   Ceiling: 11000
Heat Index: 60°   Visibility: 10mi
Dew Point: 47°   Wind: 12mph
Humidity: 62%   Direction: 140°SE
Pressure: 29.66"   Gusts: NA
Location:  40.69°N, 81.02°W
Report Text: KPHD 232353Z AUTO 14010KT 10SM -RA SCT090 OVC110 16/08 A2966 RMK AO2 RAB35 SLP045 P0000 60000 T01560083 10178 20156 58042
Loading
Personal Weather Stations






























Interactive Weather Map New forecast layout! Learn more

10-Day Weather Forecast

Advertisements
Track Severe Weather on mobile